CH10112 EDDF-LPMA
Flight info
| Callsign | CH10112 |
|---|---|
| Flight time | 3h 45m |
| Altitude | 39000 |
| Route | ANEKI6E ANEKI Y163 HERBI Y164 MOPAN DCT LUTIX/N0482F410 DCT BENOT DCT NEMOS DCT NINTU DCT MEBAK DCT REPSI DCT LERGA DCT MINSO DCT NARAK DCT AGN DCT LATEK DCT PPN DCT MIRPO DCT DGO DCT NEA DCT ARDID DCT GANSU DCT NARTA DCT RAKUN |
| Aircraft | A359/H-SDE2E3GHIJ3J4J5LM1ORWXY/LB1D1 |
Departure
| Time | 2026-04-18 07:39 |
|---|---|
| Airport | Frankfurt Main Airport (EDDF) |
Arrival
| Time | 2026-04-18 11:24 |
|---|---|
| Airport | Cristiano Ronaldo International Airport (LPMA) |
| Time | Latitude | Longitude | Altitude | Speed | Heading |
|---|---|---|---|---|---|
| 2026-04-18 07:16 | 50.04642 | 8.55974 | 352 ft | 0 kts | 340° |
| 2026-04-18 07:23 | 50.04634 | 8.55979 | 352 ft | 4 kts | 347° |
| 2026-04-18 07:23 | 50.04631 | 8.55980 | 352 ft | 0 kts | 349° |
| 2026-04-18 07:26 | 50.04632 | 8.55980 | 352 ft | 0 kts | 349° |
| 2026-04-18 07:27 | 50.04636 | 8.55979 | 352 ft | 0 kts | 349° |
| 2026-04-18 07:30 | 50.04616 | 8.55982 | 359 ft | 4 kts | 5° |
| 2026-04-18 07:30 | 50.04594 | 8.55980 | 360 ft | 2 kts | 358° |
| 2026-04-18 07:31 | 50.04572 | 8.55984 | 359 ft | 4 kts | 330° |
| 2026-04-18 07:31 | 50.04562 | 8.55991 | 361 ft | 4 kts | 277° |
| 2026-04-18 07:31 | 50.04565 | 8.56012 | 361 ft | 4 kts | 238° |
| 2026-04-18 07:31 | 50.04580 | 8.56047 | 360 ft | 4 kts | 237° |
| 2026-04-18 07:32 | 50.04583 | 8.56055 | 361 ft | 4 kts | 238° |
| 2026-04-18 07:33 | 50.04580 | 8.56046 | 360 ft | 7 kts | 239° |
| 2026-04-18 07:33 | 50.04532 | 8.55975 | 360 ft | 11 kts | 212° |
| 2026-04-18 07:33 | 50.04453 | 8.55924 | 358 ft | 14 kts | 197° |
| 2026-04-18 07:34 | 50.04353 | 8.55928 | 360 ft | 16 kts | 168° |
| 2026-04-18 07:34 | 50.04238 | 8.55935 | 352 ft | 16 kts | 193° |
| 2026-04-18 07:34 | 50.04196 | 8.55815 | 360 ft | 14 kts | 254° |
| 2026-04-18 07:34 | 50.04167 | 8.55658 | 359 ft | 17 kts | 253° |
| 2026-04-18 07:35 | 50.04130 | 8.55476 | 353 ft | 19 kts | 252° |
| 2026-04-18 07:35 | 50.04081 | 8.55277 | 360 ft | 21 kts | 249° |
| 2026-04-18 07:35 | 50.04027 | 8.55054 | 357 ft | 24 kts | 249° |
| 2026-04-18 07:35 | 50.03963 | 8.54791 | 359 ft | 27 kts | 249° |
| 2026-04-18 07:36 | 50.03896 | 8.54511 | 356 ft | 28 kts | 249° |
| 2026-04-18 07:36 | 50.03806 | 8.54234 | 361 ft | 30 kts | 244° |
| 2026-04-18 07:36 | 50.03730 | 8.53932 | 358 ft | 31 kts | 250° |
| 2026-04-18 07:36 | 50.03663 | 8.53656 | 356 ft | 27 kts | 244° |
| 2026-04-18 07:37 | 50.03581 | 8.53533 | 361 ft | 4 kts | 208° |
| 2026-04-18 07:37 | 50.03507 | 8.53475 | 352 ft | 17 kts | 207° |
| 2026-04-18 07:37 | 50.03414 | 8.53437 | 354 ft | 11 kts | 172° |
| 2026-04-18 07:37 | 50.03389 | 8.53468 | 355 ft | 0 kts | 130° |
| 2026-04-18 07:38 | 50.03380 | 8.53484 | 358 ft | 10 kts | 130° |
| 2026-04-18 07:38 | 50.03327 | 8.53613 | 360 ft | 24 kts | 105° |
| 2026-04-18 07:39 | 50.03440 | 8.54199 | 359 ft | 93 kts | 70° |
| 2026-04-18 07:39 | 50.03743 | 8.55465 | 359 ft | 155 kts | 69° |
| 2026-04-18 07:39 | 50.04175 | 8.57249 | 672 ft | 183 kts | 68° |
| 2026-04-18 07:39 | 50.04606 | 8.59092 | 1531 ft | 179 kts | 76° |
| 2026-04-18 07:40 | 50.04478 | 8.61014 | 2199 ft | 192 kts | 115° |
| 2026-04-18 07:40 | 50.03453 | 8.62455 | 2393 ft | 215 kts | 159° |
| 2026-04-18 07:40 | 50.01931 | 8.62859 | 2828 ft | 226 kts | 176° |
| 2026-04-18 07:40 | 50.00376 | 8.62672 | 3557 ft | 225 kts | 194° |
| 2026-04-18 07:41 | 49.99404 | 8.62121 | 4023 ft | 225 kts | 207° |
| 2026-04-18 07:41 | 49.98190 | 8.60601 | 4719 ft | 226 kts | 228° |
| 2026-04-18 07:41 | 49.97052 | 8.58883 | 5311 ft | 234 kts | 216° |
| 2026-04-18 07:41 | 49.95498 | 8.57863 | 5656 ft | 252 kts | 195° |
| 2026-04-18 07:42 | 49.93227 | 8.56753 | 6405 ft | 262 kts | 200° |
| 2026-04-18 07:42 | 49.92059 | 8.56108 | 6860 ft | 265 kts | 200° |
| 2026-04-18 07:42 | 49.90322 | 8.55134 | 7532 ft | 268 kts | 200° |
| 2026-04-18 07:42 | 49.88553 | 8.54145 | 8204 ft | 272 kts | 200° |
| 2026-04-18 07:43 | 49.86712 | 8.53540 | 8860 ft | 276 kts | 184° |
| 2026-04-18 07:43 | 49.84777 | 8.53575 | 9587 ft | 280 kts | 178° |
| 2026-04-18 07:43 | 49.82818 | 8.53738 | 10274 ft | 284 kts | 178° |
| 2026-04-18 07:43 | 49.80796 | 8.53907 | 10640 ft | 299 kts | 178° |
| 2026-04-18 07:44 | 49.78662 | 8.54052 | 10900 ft | 316 kts | 180° |
| 2026-04-18 07:44 | 49.76411 | 8.53912 | 11154 ft | 331 kts | 186° |
| 2026-04-18 07:44 | 49.74066 | 8.53602 | 11410 ft | 345 kts | 187° |
| 2026-04-18 07:44 | 49.71619 | 8.53265 | 11738 ft | 356 kts | 187° |
| 2026-04-18 07:45 | 49.69134 | 8.52928 | 12207 ft | 361 kts | 187° |
| 2026-04-18 07:45 | 49.66616 | 8.52591 | 12707 ft | 365 kts | 187° |
| 2026-04-18 07:45 | 49.64106 | 8.52257 | 13197 ft | 369 kts | 187° |
| 2026-04-18 07:45 | 49.61529 | 8.51917 | 13682 ft | 373 kts | 187° |
| 2026-04-18 07:46 | 49.58931 | 8.51575 | 14149 ft | 376 kts | 187° |
| 2026-04-18 07:46 | 49.56310 | 8.51229 | 14589 ft | 379 kts | 188° |
| 2026-04-18 07:46 | 49.53671 | 8.50883 | 15043 ft | 382 kts | 187° |
| 2026-04-18 07:46 | 49.51011 | 8.50535 | 15497 ft | 385 kts | 188° |
| 2026-04-18 07:47 | 49.48333 | 8.50185 | 15960 ft | 387 kts | 188° |
| 2026-04-18 07:47 | 49.45641 | 8.49832 | 16415 ft | 390 kts | 188° |
| 2026-04-18 07:47 | 49.42925 | 8.49477 | 16869 ft | 393 kts | 188° |
| 2026-04-18 07:47 | 49.40187 | 8.49118 | 17315 ft | 396 kts | 188° |
| 2026-04-18 07:48 | 49.37459 | 8.48761 | 17759 ft | 398 kts | 188° |
| 2026-04-18 07:48 | 49.34688 | 8.48397 | 18186 ft | 401 kts | 188° |
| 2026-04-18 07:48 | 49.31893 | 8.48031 | 18615 ft | 404 kts | 188° |
| 2026-04-18 07:48 | 49.29076 | 8.47656 | 18996 ft | 406 kts | 188° |
| 2026-04-18 07:49 | 49.26246 | 8.47283 | 19391 ft | 409 kts | 188° |
| 2026-04-18 07:49 | 49.23404 | 8.46912 | 19777 ft | 411 kts | 188° |
| 2026-04-18 07:49 | 49.20556 | 8.46539 | 20171 ft | 412 kts | 188° |
| 2026-04-18 07:49 | 49.17686 | 8.46162 | 20559 ft | 415 kts | 188° |
| 2026-04-18 07:50 | 49.14839 | 8.45790 | 20936 ft | 417 kts | 188° |
| 2026-04-18 07:50 | 49.11939 | 8.45413 | 21316 ft | 419 kts | 188° |
| 2026-04-18 07:50 | 49.09023 | 8.45035 | 21684 ft | 421 kts | 188° |
| 2026-04-18 07:50 | 49.06123 | 8.44463 | 22041 ft | 421 kts | 193° |
| 2026-04-18 07:51 | 49.03240 | 8.43612 | 22398 ft | 422 kts | 194° |
| 2026-04-18 07:51 | 49.00360 | 8.42668 | 22740 ft | 424 kts | 195° |
| 2026-04-18 07:51 | 48.97477 | 8.41670 | 23087 ft | 426 kts | 196° |
| 2026-04-18 07:51 | 48.94581 | 8.40646 | 23448 ft | 428 kts | 196° |
| 2026-04-18 07:52 | 48.91678 | 8.39617 | 23798 ft | 430 kts | 196° |
| 2026-04-18 07:52 | 48.88754 | 8.38585 | 24094 ft | 432 kts | 196° |
| 2026-04-18 07:52 | 48.85818 | 8.37555 | 24397 ft | 433 kts | 196° |
| 2026-04-18 07:52 | 48.82871 | 8.36527 | 24699 ft | 435 kts | 196° |
| 2026-04-18 07:53 | 48.79920 | 8.35503 | 25008 ft | 437 kts | 196° |
| 2026-04-18 07:53 | 48.76948 | 8.34471 | 25312 ft | 438 kts | 196° |
| 2026-04-18 07:53 | 48.73979 | 8.33404 | 25611 ft | 440 kts | 197° |
| 2026-04-18 07:53 | 48.71026 | 8.32322 | 25910 ft | 442 kts | 197° |
| 2026-04-18 07:54 | 48.68028 | 8.31215 | 26221 ft | 443 kts | 197° |
| 2026-04-18 07:54 | 48.65029 | 8.30110 | 26560 ft | 445 kts | 197° |
| 2026-04-18 07:54 | 48.62013 | 8.29003 | 26900 ft | 447 kts | 197° |
| 2026-04-18 07:54 | 48.58986 | 8.27897 | 27253 ft | 449 kts | 197° |
| 2026-04-18 07:55 | 48.55932 | 8.26786 | 27599 ft | 451 kts | 197° |
| 2026-04-18 07:55 | 48.52877 | 8.25677 | 27980 ft | 453 kts | 197° |
| 2026-04-18 07:55 | 48.49808 | 8.24566 | 28354 ft | 455 kts | 197° |
| 2026-04-18 07:55 | 48.46710 | 8.23441 | 28729 ft | 457 kts | 197° |
| 2026-04-18 07:56 | 48.43614 | 8.22313 | 29124 ft | 459 kts | 197° |
| 2026-04-18 07:56 | 48.40539 | 8.21190 | 29520 ft | 461 kts | 197° |
| 2026-04-18 07:56 | 48.37410 | 8.20046 | 29908 ft | 464 kts | 197° |
| 2026-04-18 07:56 | 48.34261 | 8.18898 | 30294 ft | 466 kts | 197° |
| 2026-04-18 07:57 | 48.31098 | 8.17746 | 30636 ft | 468 kts | 197° |
| 2026-04-18 07:57 | 48.27913 | 8.16588 | 30958 ft | 471 kts | 197° |
| 2026-04-18 07:57 | 48.24774 | 8.15181 | 31282 ft | 470 kts | 204° |
| 2026-04-18 07:57 | 48.21770 | 8.13259 | 31604 ft | 471 kts | 208° |
| 2026-04-18 07:58 | 48.15840 | 8.08986 | 32240 ft | 474 kts | 210° |
| 2026-04-18 07:58 | 48.12882 | 8.06778 | 32523 ft | 476 kts | 210° |
| 2026-04-18 07:58 | 48.09951 | 8.04584 | 32805 ft | 478 kts | 210° |
| 2026-04-18 07:59 | 48.06974 | 8.02366 | 33148 ft | 478 kts | 210° |
| 2026-04-18 07:59 | 48.03996 | 8.00161 | 33614 ft | 476 kts | 210° |
| 2026-04-18 07:59 | 48.01026 | 7.97973 | 34055 ft | 475 kts | 209° |
| 2026-04-18 07:59 | 47.98067 | 7.95797 | 34424 ft | 474 kts | 209° |
| 2026-04-18 08:00 | 47.95107 | 7.93626 | 34790 ft | 473 kts | 209° |
| 2026-04-18 08:00 | 47.92145 | 7.91459 | 35101 ft | 473 kts | 209° |
| 2026-04-18 08:00 | 47.89190 | 7.89300 | 35433 ft | 472 kts | 209° |
| 2026-04-18 08:00 | 47.86234 | 7.87142 | 35783 ft | 472 kts | 209° |
| 2026-04-18 08:01 | 47.83287 | 7.84992 | 36139 ft | 471 kts | 209° |
| 2026-04-18 08:01 | 47.80334 | 7.82842 | 36478 ft | 471 kts | 209° |
| 2026-04-18 08:01 | 47.77396 | 7.80705 | 36822 ft | 471 kts | 209° |
| 2026-04-18 08:01 | 47.74451 | 7.78565 | 37148 ft | 470 kts | 209° |
| 2026-04-18 08:02 | 47.71513 | 7.76433 | 37469 ft | 470 kts | 209° |
| 2026-04-18 08:02 | 47.68606 | 7.74327 | 37778 ft | 470 kts | 209° |
| 2026-04-18 08:02 | 47.65672 | 7.72205 | 38104 ft | 470 kts | 209° |
| 2026-04-18 08:02 | 47.62727 | 7.70077 | 38428 ft | 469 kts | 209° |
| 2026-04-18 08:03 | 47.59794 | 7.67960 | 38748 ft | 468 kts | 209° |
| 2026-04-18 08:03 | 47.56863 | 7.65847 | 39007 ft | 468 kts | 209° |
| 2026-04-18 08:03 | 47.53932 | 7.63736 | 39167 ft | 470 kts | 209° |
| 2026-04-18 08:04 | 47.48052 | 7.59510 | 39210 ft | 469 kts | 209° |
| 2026-04-18 08:04 | 47.42209 | 7.55321 | 39216 ft | 469 kts | 208° |
| 2026-04-18 08:05 | 47.36334 | 7.51119 | 39214 ft | 469 kts | 208° |
| 2026-04-18 08:05 | 47.30452 | 7.46923 | 39209 ft | 469 kts | 208° |
| 2026-04-18 08:06 | 47.24576 | 7.42742 | 39210 ft | 469 kts | 208° |
| 2026-04-18 08:06 | 47.18787 | 7.38327 | 39225 ft | 467 kts | 216° |
| 2026-04-18 08:06 | 47.16183 | 7.35480 | 39390 ft | 465 kts | 224° |
| 2026-04-18 08:07 | 47.13901 | 7.32121 | 39606 ft | 462 kts | 231° |
| 2026-04-18 08:07 | 47.11821 | 7.28525 | 39814 ft | 462 kts | 232° |
| 2026-04-18 08:07 | 47.09830 | 7.24903 | 40020 ft | 462 kts | 233° |
| 2026-04-18 08:07 | 47.07840 | 7.21200 | 40204 ft | 462 kts | 234° |
| 2026-04-18 08:08 | 47.05857 | 7.17489 | 40405 ft | 462 kts | 234° |
| 2026-04-18 08:08 | 47.03867 | 7.13785 | 40590 ft | 463 kts | 233° |
| 2026-04-18 08:08 | 47.01868 | 7.10088 | 40808 ft | 463 kts | 233° |
| 2026-04-18 08:08 | 46.99863 | 7.06399 | 40964 ft | 463 kts | 233° |
| 2026-04-18 08:09 | 46.97844 | 7.02700 | 41145 ft | 463 kts | 233° |
| 2026-04-18 08:09 | 46.93796 | 6.95319 | 41212 ft | 464 kts | 233° |
| 2026-04-18 08:10 | 46.89770 | 6.87996 | 41209 ft | 464 kts | 233° |
| 2026-04-18 08:10 | 46.85712 | 6.80648 | 41211 ft | 464 kts | 233° |
| 2026-04-18 08:11 | 46.81646 | 6.73320 | 41213 ft | 464 kts | 233° |
| 2026-04-18 08:11 | 46.77577 | 6.66000 | 41216 ft | 464 kts | 233° |
| 2026-04-18 08:12 | 46.73509 | 6.58696 | 41220 ft | 464 kts | 233° |
| 2026-04-18 08:12 | 46.69437 | 6.51401 | 41218 ft | 464 kts | 233° |
| 2026-04-18 08:13 | 46.65357 | 6.44115 | 41217 ft | 464 kts | 233° |
| 2026-04-18 08:13 | 46.61299 | 6.36886 | 41217 ft | 463 kts | 233° |
| 2026-04-18 08:14 | 46.57217 | 6.29633 | 41215 ft | 463 kts | 232° |
| 2026-04-18 08:14 | 46.53128 | 6.22387 | 41209 ft | 463 kts | 232° |
| 2026-04-18 08:15 | 46.49043 | 6.15165 | 41209 ft | 463 kts | 232° |
| 2026-04-18 08:15 | 46.44947 | 6.07945 | 41208 ft | 463 kts | 232° |
| 2026-04-18 08:16 | 46.40842 | 6.00730 | 41210 ft | 463 kts | 232° |
| 2026-04-18 08:16 | 46.36761 | 5.93573 | 41207 ft | 463 kts | 232° |
| 2026-04-18 08:17 | 46.32650 | 5.86384 | 41205 ft | 463 kts | 232° |
| 2026-04-18 08:17 | 46.28543 | 5.79214 | 41205 ft | 463 kts | 232° |
| 2026-04-18 08:18 | 46.24425 | 5.72047 | 41206 ft | 463 kts | 232° |
| 2026-04-18 08:18 | 46.20303 | 5.64890 | 41205 ft | 463 kts | 232° |
| 2026-04-18 08:19 | 46.16180 | 5.57750 | 41202 ft | 463 kts | 232° |
| 2026-04-18 08:19 | 46.12385 | 5.50349 | 41203 ft | 462 kts | 237° |
| 2026-04-18 08:20 | 46.08724 | 5.42755 | 41205 ft | 462 kts | 237° |
| 2026-04-18 08:20 | 46.05079 | 5.35138 | 41212 ft | 461 kts | 237° |
| 2026-04-18 08:21 | 46.01425 | 5.27535 | 41214 ft | 461 kts | 237° |
| 2026-04-18 08:21 | 45.97760 | 5.19947 | 41211 ft | 461 kts | 237° |
| 2026-04-18 08:22 | 45.94090 | 5.12376 | 41212 ft | 461 kts | 237° |
| 2026-04-18 08:22 | 45.90419 | 5.04823 | 41213 ft | 461 kts | 237° |
| 2026-04-18 08:23 | 45.86761 | 4.97317 | 41209 ft | 461 kts | 237° |
| 2026-04-18 08:23 | 45.83071 | 4.89765 | 41210 ft | 461 kts | 237° |
| 2026-04-18 08:24 | 45.79381 | 4.82234 | 41210 ft | 461 kts | 237° |
| 2026-04-18 08:24 | 45.75688 | 4.74716 | 41211 ft | 461 kts | 237° |
| 2026-04-18 08:25 | 45.72013 | 4.67254 | 41212 ft | 461 kts | 237° |
| 2026-04-18 08:25 | 45.68313 | 4.59758 | 41209 ft | 461 kts | 237° |
| 2026-04-18 08:26 | 45.64606 | 4.52269 | 41231 ft | 461 kts | 237° |
| 2026-04-18 08:26 | 45.60898 | 4.44797 | 41234 ft | 461 kts | 237° |
| 2026-04-18 08:27 | 45.57181 | 4.37327 | 41236 ft | 461 kts | 237° |
| 2026-04-18 08:27 | 45.53463 | 4.29873 | 41236 ft | 461 kts | 237° |
| 2026-04-18 08:28 | 45.49744 | 4.22429 | 41238 ft | 461 kts | 237° |
| 2026-04-18 08:28 | 45.46010 | 4.14995 | 41236 ft | 461 kts | 236° |
| 2026-04-18 08:29 | 45.42903 | 4.08825 | 41231 ft | 461 kts | 236° |
| 2026-04-18 08:29 | 45.38555 | 4.00210 | 41230 ft | 460 kts | 236° |
| 2026-04-18 08:30 | 45.35425 | 3.94022 | 41227 ft | 460 kts | 236° |
| 2026-04-18 08:30 | 45.31706 | 3.86686 | 41229 ft | 460 kts | 236° |
| 2026-04-18 08:31 | 45.27960 | 3.79318 | 41242 ft | 460 kts | 236° |
| 2026-04-18 08:31 | 45.24223 | 3.71954 | 41231 ft | 460 kts | 237° |
| 2026-04-18 08:32 | 45.20555 | 3.64503 | 41228 ft | 459 kts | 237° |
| 2026-04-18 08:32 | 45.16913 | 3.57063 | 41240 ft | 459 kts | 237° |
| 2026-04-18 08:33 | 45.13252 | 3.49638 | 41237 ft | 459 kts | 237° |
| 2026-04-18 08:33 | 45.09589 | 3.42249 | 41217 ft | 459 kts | 237° |
| 2026-04-18 08:34 | 45.05916 | 3.34866 | 41232 ft | 458 kts | 237° |
| 2026-04-18 08:34 | 45.02268 | 3.27545 | 41228 ft | 458 kts | 237° |
| 2026-04-18 08:35 | 44.98591 | 3.20183 | 41224 ft | 458 kts | 237° |
| 2026-04-18 08:35 | 44.94902 | 3.12820 | 41222 ft | 458 kts | 237° |
| 2026-04-18 08:36 | 44.91240 | 3.05529 | 41221 ft | 458 kts | 237° |
| 2026-04-18 08:36 | 44.87553 | 2.98209 | 41219 ft | 458 kts | 237° |
| 2026-04-18 08:37 | 44.83876 | 2.90904 | 41216 ft | 458 kts | 237° |
| 2026-04-18 08:37 | 44.80382 | 2.83402 | 41211 ft | 458 kts | 239° |
| 2026-04-18 08:38 | 44.76969 | 2.75832 | 41210 ft | 458 kts | 239° |
| 2026-04-18 08:38 | 44.73518 | 2.68274 | 41209 ft | 459 kts | 239° |
| 2026-04-18 08:39 | 44.70055 | 2.60788 | 41208 ft | 459 kts | 239° |
| 2026-04-18 08:39 | 44.66552 | 2.53254 | 41208 ft | 460 kts | 238° |
| 2026-04-18 08:40 | 44.63051 | 2.45743 | 41217 ft | 460 kts | 238° |
| 2026-04-18 08:40 | 44.59541 | 2.38234 | 41224 ft | 460 kts | 238° |
| 2026-04-18 08:41 | 44.56021 | 2.30721 | 41227 ft | 460 kts | 238° |
| 2026-04-18 08:41 | 44.52524 | 2.23277 | 41226 ft | 459 kts | 238° |
| 2026-04-18 08:42 | 44.49005 | 2.15805 | 41218 ft | 459 kts | 238° |
| 2026-04-18 08:42 | 44.45481 | 2.08343 | 41216 ft | 459 kts | 238° |
| 2026-04-18 08:43 | 44.41945 | 2.00877 | 41211 ft | 459 kts | 238° |
| 2026-04-18 08:43 | 44.38412 | 1.93435 | 41210 ft | 459 kts | 238° |
| 2026-04-18 08:44 | 44.34871 | 1.85994 | 41211 ft | 459 kts | 238° |
| 2026-04-18 08:44 | 44.31322 | 1.78561 | 41215 ft | 459 kts | 238° |
| 2026-04-18 08:45 | 44.27790 | 1.71132 | 41212 ft | 459 kts | 238° |
| 2026-04-18 08:45 | 44.24353 | 1.63632 | 41218 ft | 459 kts | 239° |
| 2026-04-18 08:46 | 44.20951 | 1.56171 | 41219 ft | 459 kts | 239° |
| 2026-04-18 08:46 | 44.17502 | 1.48665 | 41218 ft | 458 kts | 239° |
| 2026-04-18 08:47 | 44.14047 | 1.41195 | 41222 ft | 458 kts | 239° |
| 2026-04-18 08:47 | 44.10591 | 1.33746 | 41222 ft | 458 kts | 238° |
| 2026-04-18 08:48 | 44.07149 | 1.26346 | 41224 ft | 458 kts | 238° |
| 2026-04-18 08:48 | 44.03682 | 1.18909 | 41224 ft | 457 kts | 238° |
| 2026-04-18 08:49 | 44.00216 | 1.11493 | 41222 ft | 457 kts | 238° |
| 2026-04-18 08:49 | 43.96740 | 1.04074 | 41223 ft | 457 kts | 238° |
| 2026-04-18 08:50 | 43.93271 | 0.96689 | 41223 ft | 457 kts | 238° |
| 2026-04-18 08:50 | 43.89783 | 0.89310 | 41216 ft | 457 kts | 237° |
| 2026-04-18 08:51 | 43.85777 | 0.82498 | 41223 ft | 458 kts | 231° |
| 2026-04-18 08:51 | 43.81533 | 0.75897 | 41224 ft | 458 kts | 230° |
| 2026-04-18 08:52 | 43.77256 | 0.69335 | 41223 ft | 458 kts | 230° |
| 2026-04-18 08:52 | 43.73013 | 0.62824 | 41225 ft | 458 kts | 230° |
| 2026-04-18 08:53 | 43.68745 | 0.56271 | 41224 ft | 458 kts | 230° |
| 2026-04-18 08:53 | 43.64480 | 0.49731 | 41228 ft | 458 kts | 230° |
| 2026-04-18 08:54 | 43.60209 | 0.43196 | 41226 ft | 458 kts | 230° |
| 2026-04-18 08:54 | 43.55931 | 0.36666 | 41230 ft | 458 kts | 230° |
| 2026-04-18 08:55 | 43.51655 | 0.30155 | 41231 ft | 458 kts | 230° |
| 2026-04-18 08:55 | 43.47370 | 0.23648 | 41234 ft | 458 kts | 230° |
| 2026-04-18 08:56 | 43.43087 | 0.17157 | 41235 ft | 458 kts | 230° |
| 2026-04-18 08:56 | 43.38797 | 0.10671 | 41238 ft | 458 kts | 229° |
| 2026-04-18 08:57 | 43.32356 | 0.00962 | 41239 ft | 458 kts | 229° |
| 2026-04-18 08:57 | 43.28088 | -0.05452 | 41237 ft | 458 kts | 229° |
| 2026-04-18 08:58 | 43.23788 | -0.11901 | 41237 ft | 458 kts | 229° |
| 2026-04-18 08:58 | 43.19483 | -0.18343 | 41234 ft | 458 kts | 229° |
| 2026-04-18 08:59 | 43.15172 | -0.24779 | 41237 ft | 458 kts | 229° |
| 2026-04-18 08:59 | 43.10863 | -0.31199 | 41234 ft | 458 kts | 229° |
| 2026-04-18 09:00 | 43.06573 | -0.37575 | 41230 ft | 458 kts | 229° |
| 2026-04-18 09:00 | 43.02254 | -0.43983 | 41222 ft | 457 kts | 229° |
| 2026-04-18 09:01 | 42.97941 | -0.50371 | 41219 ft | 457 kts | 229° |
| 2026-04-18 09:01 | 42.93613 | -0.56765 | 41215 ft | 458 kts | 229° |
| 2026-04-18 09:02 | 42.89556 | -0.63431 | 41210 ft | 456 kts | 238° |
| 2026-04-18 09:02 | 42.86915 | -0.71224 | 41207 ft | 454 kts | 255° |
| 2026-04-18 09:03 | 42.85612 | -0.79653 | 41202 ft | 455 kts | 260° |
| 2026-04-18 09:03 | 42.84543 | -0.88103 | 41203 ft | 456 kts | 260° |
| 2026-04-18 09:04 | 42.83462 | -0.96599 | 41200 ft | 455 kts | 260° |
| 2026-04-18 09:04 | 42.82345 | -1.05070 | 41199 ft | 455 kts | 259° |
| 2026-04-18 09:05 | 42.81204 | -1.13552 | 41196 ft | 454 kts | 259° |
| 2026-04-18 09:05 | 42.80058 | -1.22011 | 41205 ft | 454 kts | 259° |
| 2026-04-18 09:06 | 42.78907 | -1.30469 | 41214 ft | 454 kts | 259° |
| 2026-04-18 09:06 | 42.77759 | -1.38865 | 41225 ft | 454 kts | 259° |
| 2026-04-18 09:07 | 42.76599 | -1.47306 | 41234 ft | 453 kts | 259° |
| 2026-04-18 09:07 | 42.75432 | -1.55741 | 41239 ft | 453 kts | 259° |
| 2026-04-18 09:08 | 42.74260 | -1.64168 | 41237 ft | 453 kts | 259° |
| 2026-04-18 09:08 | 42.72868 | -1.72519 | 41243 ft | 453 kts | 254° |
| 2026-04-18 09:09 | 42.71077 | -1.80716 | 41236 ft | 452 kts | 253° |
| 2026-04-18 09:09 | 42.69225 | -1.88885 | 41229 ft | 452 kts | 253° |
| 2026-04-18 09:10 | 42.67364 | -1.97055 | 41218 ft | 452 kts | 253° |
| 2026-04-18 09:10 | 42.65508 | -2.05207 | 41211 ft | 452 kts | 253° |
| 2026-04-18 09:11 | 42.63661 | -2.13305 | 41210 ft | 451 kts | 252° |
| 2026-04-18 09:11 | 42.61778 | -2.21432 | 41211 ft | 451 kts | 252° |
| 2026-04-18 09:12 | 42.59800 | -2.29508 | 41213 ft | 451 kts | 251° |
| 2026-04-18 09:12 | 42.57806 | -2.37591 | 41213 ft | 451 kts | 251° |
| 2026-04-18 09:13 | 42.55827 | -2.45659 | 41212 ft | 451 kts | 251° |
| 2026-04-18 09:13 | 42.53839 | -2.53777 | 41210 ft | 456 kts | 251° |
| 2026-04-18 09:14 | 42.51821 | -2.61999 | 41212 ft | 462 kts | 251° |
| 2026-04-18 09:14 | 42.49792 | -2.70231 | 41213 ft | 464 kts | 251° |
| 2026-04-18 09:15 | 42.47740 | -2.78523 | 41215 ft | 464 kts | 251° |
| 2026-04-18 09:15 | 42.45662 | -2.86806 | 41213 ft | 464 kts | 249° |
| 2026-04-18 09:16 | 42.43099 | -2.94811 | 41215 ft | 464 kts | 246° |
| 2026-04-18 09:16 | 42.40402 | -3.02752 | 41214 ft | 464 kts | 245° |
| 2026-04-18 09:17 | 42.38146 | -3.09328 | 41204 ft | 464 kts | 245° |
| 2026-04-18 09:17 | 42.35427 | -3.17252 | 41208 ft | 464 kts | 245° |
| 2026-04-18 09:18 | 42.32705 | -3.25186 | 41210 ft | 464 kts | 245° |
| 2026-04-18 09:18 | 42.30005 | -3.33035 | 41217 ft | 463 kts | 245° |
| 2026-04-18 09:19 | 42.27286 | -3.40919 | 41224 ft | 463 kts | 245° |
| 2026-04-18 09:19 | 42.24560 | -3.48801 | 41228 ft | 463 kts | 245° |
| 2026-04-18 09:20 | 42.21823 | -3.56695 | 41227 ft | 463 kts | 245° |
| 2026-04-18 09:20 | 42.19084 | -3.64567 | 41221 ft | 463 kts | 245° |
| 2026-04-18 09:21 | 42.16337 | -3.72442 | 41213 ft | 463 kts | 245° |
| 2026-04-18 09:21 | 42.13608 | -3.80243 | 41202 ft | 463 kts | 245° |
| 2026-04-18 09:22 | 42.10857 | -3.88083 | 41190 ft | 463 kts | 245° |
| 2026-04-18 09:22 | 42.08100 | -3.95919 | 41183 ft | 463 kts | 245° |
| 2026-04-18 09:23 | 42.05334 | -4.03757 | 41181 ft | 463 kts | 245° |
| 2026-04-18 09:23 | 42.02585 | -4.11528 | 41179 ft | 463 kts | 245° |
| 2026-04-18 09:24 | 41.99717 | -4.19273 | 41177 ft | 463 kts | 243° |
| 2026-04-18 09:24 | 41.96754 | -4.26942 | 41175 ft | 463 kts | 243° |
| 2026-04-18 09:25 | 41.93796 | -4.34619 | 41173 ft | 463 kts | 243° |
| 2026-04-18 09:25 | 41.90846 | -4.42316 | 41174 ft | 463 kts | 243° |
| 2026-04-18 09:26 | 41.87904 | -4.49998 | 41176 ft | 463 kts | 243° |
| 2026-04-18 09:26 | 41.84957 | -4.57673 | 41177 ft | 462 kts | 243° |
| 2026-04-18 09:27 | 41.82006 | -4.65333 | 41178 ft | 462 kts | 243° |
| 2026-04-18 09:27 | 41.79048 | -4.72990 | 41184 ft | 462 kts | 243° |
| 2026-04-18 09:28 | 41.76104 | -4.80590 | 41184 ft | 462 kts | 243° |
| 2026-04-18 09:28 | 41.73143 | -4.88215 | 41181 ft | 462 kts | 243° |
| 2026-04-18 09:29 | 41.70167 | -4.95859 | 41184 ft | 462 kts | 243° |
| 2026-04-18 09:29 | 41.67189 | -5.03488 | 41179 ft | 462 kts | 243° |
| 2026-04-18 09:30 | 41.64204 | -5.11115 | 41176 ft | 462 kts | 243° |
| 2026-04-18 09:30 | 41.61217 | -5.18726 | 41174 ft | 462 kts | 243° |
| 2026-04-18 09:31 | 41.58242 | -5.26288 | 41168 ft | 462 kts | 243° |
| 2026-04-18 09:31 | 41.55242 | -5.33895 | 41165 ft | 462 kts | 242° |
| 2026-04-18 09:32 | 41.52241 | -5.41484 | 41165 ft | 463 kts | 242° |
| 2026-04-18 09:32 | 41.49229 | -5.49080 | 41164 ft | 462 kts | 242° |
| 2026-04-18 09:33 | 41.46217 | -5.56657 | 41164 ft | 463 kts | 242° |
| 2026-04-18 09:33 | 41.43198 | -5.64231 | 41166 ft | 463 kts | 242° |
| 2026-04-18 09:34 | 41.40168 | -5.71814 | 41161 ft | 463 kts | 242° |
| 2026-04-18 09:34 | 41.37139 | -5.79374 | 41162 ft | 463 kts | 242° |
| 2026-04-18 09:35 | 41.34104 | -5.86930 | 41161 ft | 463 kts | 242° |
| 2026-04-18 09:35 | 41.31080 | -5.94439 | 41155 ft | 463 kts | 242° |
| 2026-04-18 09:36 | 41.28030 | -6.01994 | 41154 ft | 463 kts | 242° |
| 2026-04-18 09:36 | 41.24976 | -6.09539 | 41148 ft | 463 kts | 242° |
| 2026-04-18 09:37 | 41.21918 | -6.17075 | 41148 ft | 463 kts | 242° |
| 2026-04-18 09:37 | 41.18823 | -6.24580 | 41143 ft | 463 kts | 239° |
| 2026-04-18 09:38 | 41.14800 | -6.31237 | 41145 ft | 465 kts | 225° |
| 2026-04-18 09:38 | 41.10045 | -6.37065 | 41137 ft | 465 kts | 223° |
| 2026-04-18 09:39 | 41.05216 | -6.42709 | 41138 ft | 466 kts | 223° |
| 2026-04-18 09:39 | 41.00357 | -6.48382 | 41139 ft | 466 kts | 223° |
| 2026-04-18 09:40 | 40.95505 | -6.54077 | 41135 ft | 466 kts | 223° |
| 2026-04-18 09:40 | 40.90658 | -6.59772 | 41135 ft | 466 kts | 223° |
| 2026-04-18 09:41 | 40.85813 | -6.65456 | 41134 ft | 466 kts | 223° |
| 2026-04-18 09:41 | 40.80961 | -6.71135 | 41132 ft | 466 kts | 223° |
| 2026-04-18 09:42 | 40.76110 | -6.76802 | 41132 ft | 466 kts | 223° |
| 2026-04-18 09:42 | 40.71250 | -6.82467 | 41129 ft | 466 kts | 223° |
| 2026-04-18 09:43 | 40.66411 | -6.88097 | 41128 ft | 466 kts | 223° |
| 2026-04-18 09:43 | 40.61548 | -6.93744 | 41129 ft | 466 kts | 223° |
| 2026-04-18 09:44 | 40.56684 | -6.99380 | 41139 ft | 466 kts | 223° |
| 2026-04-18 09:44 | 40.51841 | -7.04976 | 41128 ft | 466 kts | 223° |
| 2026-04-18 09:45 | 40.46965 | -7.10603 | 41123 ft | 466 kts | 223° |
| 2026-04-18 09:45 | 40.42084 | -7.16229 | 41121 ft | 466 kts | 223° |
| 2026-04-18 09:46 | 40.37204 | -7.21841 | 41130 ft | 466 kts | 223° |
| 2026-04-18 09:46 | 40.32342 | -7.27420 | 41126 ft | 459 kts | 223° |
| 2026-04-18 09:47 | 40.27572 | -7.32878 | 41129 ft | 453 kts | 223° |
| 2026-04-18 09:47 | 40.22864 | -7.38257 | 41122 ft | 453 kts | 223° |
| 2026-04-18 09:48 | 40.18106 | -7.43681 | 41127 ft | 453 kts | 223° |
| 2026-04-18 09:48 | 40.13349 | -7.49093 | 41123 ft | 453 kts | 223° |
| 2026-04-18 09:49 | 40.08591 | -7.54498 | 41121 ft | 453 kts | 223° |
| 2026-04-18 09:49 | 40.03824 | -7.59906 | 41123 ft | 453 kts | 223° |
| 2026-04-18 09:50 | 39.99066 | -7.65290 | 41118 ft | 454 kts | 223° |
| 2026-04-18 09:50 | 39.94271 | -7.70705 | 41116 ft | 459 kts | 223° |
| 2026-04-18 09:51 | 39.89403 | -7.76200 | 41114 ft | 466 kts | 223° |
| 2026-04-18 09:51 | 39.84479 | -7.81745 | 41117 ft | 468 kts | 223° |
| 2026-04-18 09:52 | 39.79551 | -7.87281 | 41116 ft | 468 kts | 223° |
| 2026-04-18 09:52 | 39.74643 | -7.92780 | 41113 ft | 468 kts | 223° |
| 2026-04-18 09:53 | 39.69708 | -7.98301 | 41112 ft | 468 kts | 223° |
| 2026-04-18 09:53 | 39.64768 | -8.03815 | 41122 ft | 468 kts | 223° |
| 2026-04-18 09:54 | 39.59822 | -8.09324 | 41118 ft | 468 kts | 223° |
| 2026-04-18 09:54 | 39.54908 | -8.14786 | 41119 ft | 468 kts | 222° |
| 2026-04-18 09:55 | 39.49954 | -8.20281 | 41114 ft | 468 kts | 222° |
| 2026-04-18 09:55 | 39.45002 | -8.25764 | 41112 ft | 468 kts | 222° |
| 2026-04-18 09:56 | 39.40033 | -8.31256 | 41116 ft | 469 kts | 222° |
| 2026-04-18 09:56 | 39.35069 | -8.36734 | 41122 ft | 469 kts | 222° |
| 2026-04-18 09:57 | 39.30106 | -8.42201 | 41119 ft | 469 kts | 222° |
| 2026-04-18 09:57 | 39.25136 | -8.47662 | 41116 ft | 469 kts | 222° |
| 2026-04-18 09:58 | 39.20208 | -8.53068 | 41118 ft | 469 kts | 222° |
| 2026-04-18 09:58 | 39.15230 | -8.58519 | 41117 ft | 469 kts | 222° |
| 2026-04-18 09:59 | 39.10253 | -8.63958 | 41118 ft | 469 kts | 222° |
| 2026-04-18 10:00 | 39.02779 | -8.72104 | 41119 ft | 469 kts | 222° |
| 2026-04-18 10:00 | 38.97821 | -8.77494 | 41118 ft | 469 kts | 222° |
| 2026-04-18 10:01 | 38.92823 | -8.82918 | 41113 ft | 469 kts | 222° |
| 2026-04-18 10:01 | 38.87835 | -8.88323 | 41111 ft | 469 kts | 222° |
| 2026-04-18 10:02 | 38.82824 | -8.93741 | 41104 ft | 469 kts | 222° |
| 2026-04-18 10:02 | 38.78672 | -8.98222 | 41103 ft | 469 kts | 222° |
| 2026-04-18 10:03 | 38.73674 | -9.03607 | 41102 ft | 470 kts | 222° |
| 2026-04-18 10:03 | 38.68668 | -9.08992 | 41097 ft | 470 kts | 222° |
| 2026-04-18 10:04 | 38.63661 | -9.14367 | 41102 ft | 469 kts | 222° |
| 2026-04-18 10:04 | 38.58651 | -9.19735 | 41108 ft | 469 kts | 222° |
| 2026-04-18 10:05 | 38.53675 | -9.25057 | 41103 ft | 469 kts | 222° |
| 2026-04-18 10:05 | 38.48661 | -9.30410 | 41106 ft | 469 kts | 222° |
| 2026-04-18 10:06 | 38.43648 | -9.35751 | 41108 ft | 470 kts | 222° |
| 2026-04-18 10:06 | 38.38629 | -9.41089 | 41107 ft | 470 kts | 222° |
| 2026-04-18 10:07 | 38.33614 | -9.46412 | 41108 ft | 470 kts | 221° |
| 2026-04-18 10:07 | 38.28593 | -9.51731 | 41108 ft | 470 kts | 221° |
| 2026-04-18 10:08 | 38.23563 | -9.57050 | 41111 ft | 470 kts | 221° |
| 2026-04-18 10:08 | 38.18534 | -9.62357 | 41107 ft | 470 kts | 221° |
| 2026-04-18 10:09 | 38.13500 | -9.67662 | 41107 ft | 470 kts | 221° |
| 2026-04-18 10:09 | 38.08492 | -9.72928 | 41110 ft | 470 kts | 221° |
| 2026-04-18 10:10 | 38.03459 | -9.78211 | 41110 ft | 470 kts | 221° |
| 2026-04-18 10:10 | 37.98688 | -9.83845 | 41110 ft | 467 kts | 229° |
| 2026-04-18 10:11 | 37.94376 | -9.90033 | 41110 ft | 467 kts | 231° |
| 2026-04-18 10:11 | 37.90140 | -9.96277 | 41111 ft | 467 kts | 231° |
| 2026-04-18 10:12 | 37.85897 | -10.02522 | 41113 ft | 468 kts | 231° |
| 2026-04-18 10:12 | 37.81644 | -10.08744 | 41114 ft | 467 kts | 231° |
| 2026-04-18 10:13 | 37.77409 | -10.14915 | 41115 ft | 467 kts | 230° |
| 2026-04-18 10:13 | 37.73142 | -10.21119 | 41113 ft | 467 kts | 230° |
| 2026-04-18 10:14 | 37.68870 | -10.27320 | 41116 ft | 467 kts | 230° |
| 2026-04-18 10:14 | 37.64600 | -10.33508 | 41115 ft | 467 kts | 230° |
| 2026-04-18 10:15 | 37.60316 | -10.39703 | 41116 ft | 467 kts | 230° |
| 2026-04-18 10:15 | 37.56041 | -10.45875 | 41117 ft | 467 kts | 230° |
| 2026-04-18 10:16 | 37.51786 | -10.52006 | 41120 ft | 467 kts | 230° |
| 2026-04-18 10:16 | 37.47501 | -10.58168 | 41126 ft | 467 kts | 230° |
| 2026-04-18 10:17 | 37.43215 | -10.64320 | 41125 ft | 467 kts | 230° |
| 2026-04-18 10:17 | 37.38923 | -10.70469 | 41124 ft | 467 kts | 230° |
| 2026-04-18 10:18 | 37.34634 | -10.76603 | 41122 ft | 467 kts | 230° |
| 2026-04-18 10:18 | 37.30338 | -10.82733 | 41125 ft | 467 kts | 230° |
| 2026-04-18 10:19 | 37.26041 | -10.88856 | 41123 ft | 467 kts | 230° |
| 2026-04-18 10:19 | 37.21738 | -10.94974 | 41129 ft | 467 kts | 230° |
| 2026-04-18 10:20 | 37.17453 | -11.01056 | 41127 ft | 467 kts | 230° |
| 2026-04-18 10:20 | 37.13145 | -11.07159 | 41125 ft | 467 kts | 230° |
| 2026-04-18 10:21 | 37.08832 | -11.13257 | 41129 ft | 467 kts | 230° |
| 2026-04-18 10:21 | 37.04519 | -11.19345 | 41130 ft | 467 kts | 230° |
| 2026-04-18 10:22 | 37.00201 | -11.25427 | 41131 ft | 467 kts | 230° |
| 2026-04-18 10:22 | 36.95909 | -11.31464 | 41130 ft | 467 kts | 230° |
| 2026-04-18 10:23 | 36.91587 | -11.37529 | 41130 ft | 467 kts | 230° |
| 2026-04-18 10:23 | 36.87262 | -11.43588 | 41127 ft | 467 kts | 230° |
| 2026-04-18 10:24 | 36.82930 | -11.49647 | 41130 ft | 467 kts | 230° |
| 2026-04-18 10:24 | 36.78601 | -11.55689 | 41129 ft | 467 kts | 230° |
| 2026-04-18 10:25 | 36.74265 | -11.61731 | 41132 ft | 467 kts | 230° |
| 2026-04-18 10:25 | 36.69922 | -11.67770 | 41135 ft | 467 kts | 230° |
| 2026-04-18 10:26 | 36.65582 | -11.73795 | 41135 ft | 467 kts | 230° |
| 2026-04-18 10:26 | 36.61266 | -11.79776 | 41133 ft | 467 kts | 230° |
| 2026-04-18 10:27 | 36.56916 | -11.85793 | 41135 ft | 467 kts | 230° |
| 2026-04-18 10:27 | 36.52562 | -11.91803 | 41136 ft | 467 kts | 230° |
| 2026-04-18 10:28 | 36.48195 | -11.97822 | 41136 ft | 467 kts | 230° |
| 2026-04-18 10:28 | 36.43838 | -12.03815 | 41138 ft | 467 kts | 229° |
| 2026-04-18 10:29 | 36.39507 | -12.09761 | 41136 ft | 467 kts | 229° |
| 2026-04-18 10:29 | 36.35144 | -12.15742 | 41139 ft | 467 kts | 229° |
| 2026-04-18 10:30 | 36.30778 | -12.21715 | 41141 ft | 467 kts | 229° |
| 2026-04-18 10:30 | 36.26400 | -12.27693 | 41139 ft | 467 kts | 229° |
| 2026-04-18 10:31 | 36.22058 | -12.33613 | 41144 ft | 467 kts | 229° |
| 2026-04-18 10:31 | 36.17685 | -12.39564 | 41144 ft | 467 kts | 229° |
| 2026-04-18 10:32 | 36.13309 | -12.45509 | 41145 ft | 467 kts | 229° |
| 2026-04-18 10:32 | 36.08924 | -12.51454 | 41144 ft | 467 kts | 229° |
| 2026-04-18 10:33 | 36.04540 | -12.57388 | 41142 ft | 467 kts | 229° |
| 2026-04-18 10:33 | 36.00172 | -12.63262 | 41139 ft | 467 kts | 229° |
| 2026-04-18 10:34 | 35.95771 | -12.69186 | 41148 ft | 467 kts | 229° |
| 2026-04-18 10:34 | 35.91380 | -12.75094 | 41147 ft | 467 kts | 229° |
| 2026-04-18 10:35 | 35.86982 | -12.81005 | 41142 ft | 467 kts | 229° |
| 2026-04-18 10:35 | 35.82585 | -12.86904 | 41136 ft | 467 kts | 229° |
| 2026-04-18 10:36 | 35.78215 | -12.92758 | 41135 ft | 467 kts | 229° |
| 2026-04-18 10:36 | 35.73813 | -12.98642 | 41136 ft | 467 kts | 229° |
| 2026-04-18 10:37 | 35.69414 | -13.04514 | 41132 ft | 467 kts | 229° |
| 2026-04-18 10:37 | 35.65006 | -13.10388 | 41150 ft | 467 kts | 229° |
| 2026-04-18 10:38 | 35.60598 | -13.16251 | 41149 ft | 467 kts | 229° |
| 2026-04-18 10:38 | 35.56190 | -13.22104 | 41146 ft | 467 kts | 229° |
| 2026-04-18 10:39 | 35.51776 | -13.27956 | 41143 ft | 467 kts | 229° |
| 2026-04-18 10:39 | 35.47353 | -13.33808 | 41142 ft | 467 kts | 229° |
| 2026-04-18 10:40 | 35.42965 | -13.39601 | 41143 ft | 467 kts | 229° |
| 2026-04-18 10:40 | 35.38541 | -13.45431 | 41139 ft | 467 kts | 229° |
| 2026-04-18 10:41 | 35.34114 | -13.51257 | 41141 ft | 467 kts | 229° |
| 2026-04-18 10:41 | 35.29683 | -13.57077 | 41142 ft | 467 kts | 229° |
| 2026-04-18 10:42 | 35.25252 | -13.62888 | 41143 ft | 467 kts | 229° |
| 2026-04-18 10:42 | 35.20816 | -13.68693 | 41146 ft | 467 kts | 229° |
| 2026-04-18 10:43 | 35.16385 | -13.74484 | 41145 ft | 466 kts | 229° |
| 2026-04-18 10:43 | 35.11949 | -13.80273 | 41144 ft | 466 kts | 229° |
| 2026-04-18 10:44 | 35.07505 | -13.86062 | 41144 ft | 467 kts | 229° |
| 2026-04-18 10:44 | 35.03091 | -13.91803 | 41143 ft | 467 kts | 229° |
| 2026-04-18 10:45 | 34.98618 | -13.97613 | 41141 ft | 467 kts | 228° |
| 2026-04-18 10:45 | 34.94187 | -14.03356 | 41142 ft | 467 kts | 228° |
| 2026-04-18 10:46 | 34.89736 | -14.09117 | 41142 ft | 467 kts | 228° |
| 2026-04-18 10:46 | 34.85283 | -14.14870 | 41141 ft | 466 kts | 228° |
| 2026-04-18 10:47 | 34.80831 | -14.20611 | 41141 ft | 466 kts | 228° |
| 2026-04-18 10:47 | 34.76401 | -14.26314 | 41137 ft | 466 kts | 228° |
| 2026-04-18 10:48 | 34.71934 | -14.32056 | 41138 ft | 466 kts | 228° |
| 2026-04-18 10:48 | 34.67472 | -14.37781 | 41140 ft | 466 kts | 228° |
| 2026-04-18 10:49 | 34.63007 | -14.43502 | 41140 ft | 466 kts | 228° |
| 2026-04-18 10:49 | 34.58564 | -14.49185 | 41140 ft | 466 kts | 228° |
| 2026-04-18 10:50 | 34.54091 | -14.54893 | 41139 ft | 466 kts | 228° |
| 2026-04-18 10:50 | 34.50346 | -14.59668 | 41136 ft | 466 kts | 228° |
| 2026-04-18 10:51 | 34.45897 | -14.65330 | 41135 ft | 466 kts | 228° |
| 2026-04-18 10:51 | 34.41423 | -14.71017 | 41139 ft | 466 kts | 228° |
| 2026-04-18 10:52 | 34.36954 | -14.76690 | 41138 ft | 466 kts | 228° |
| 2026-04-18 10:52 | 34.32472 | -14.82368 | 41131 ft | 466 kts | 228° |
| 2026-04-18 10:53 | 34.27983 | -14.88045 | 41132 ft | 466 kts | 228° |
| 2026-04-18 10:53 | 34.23516 | -14.93684 | 41188 ft | 466 kts | 228° |
| 2026-04-18 10:54 | 34.19044 | -14.99324 | 41132 ft | 462 kts | 228° |
| 2026-04-18 10:54 | 34.14652 | -15.04850 | 41144 ft | 451 kts | 228° |
| 2026-04-18 10:55 | 34.10313 | -15.10302 | 41149 ft | 449 kts | 228° |
| 2026-04-18 10:55 | 34.06005 | -15.15707 | 41145 ft | 450 kts | 227° |
| 2026-04-18 10:56 | 34.01668 | -15.21139 | 40840 ft | 448 kts | 227° |
| 2026-04-18 10:56 | 33.99502 | -15.23849 | 40599 ft | 449 kts | 227° |
| 2026-04-18 10:56 | 33.97330 | -15.26564 | 40361 ft | 449 kts | 227° |
| 2026-04-18 10:56 | 33.95165 | -15.29268 | 39908 ft | 446 kts | 227° |
| 2026-04-18 10:57 | 33.93013 | -15.31955 | 39307 ft | 446 kts | 227° |
| 2026-04-18 10:57 | 33.90840 | -15.34668 | 38663 ft | 454 kts | 227° |
| 2026-04-18 10:57 | 33.88633 | -15.37420 | 38319 ft | 459 kts | 227° |
| 2026-04-18 10:57 | 33.86431 | -15.40164 | 37679 ft | 454 kts | 227° |
| 2026-04-18 10:58 | 33.84227 | -15.42907 | 36734 ft | 457 kts | 226° |
| 2026-04-18 10:58 | 33.82010 | -15.45665 | 35771 ft | 460 kts | 226° |
| 2026-04-18 10:58 | 33.79779 | -15.48438 | 34912 ft | 462 kts | 226° |
| 2026-04-18 10:58 | 33.77568 | -15.51183 | 34055 ft | 463 kts | 226° |
| 2026-04-18 10:59 | 33.75318 | -15.53973 | 33065 ft | 465 kts | 226° |
| 2026-04-18 10:59 | 33.73065 | -15.56763 | 32131 ft | 466 kts | 226° |
| 2026-04-18 10:59 | 33.70804 | -15.59560 | 31234 ft | 466 kts | 226° |
| 2026-04-18 10:59 | 33.68541 | -15.62358 | 30439 ft | 465 kts | 226° |
| 2026-04-18 11:00 | 33.66295 | -15.65132 | 29682 ft | 462 kts | 226° |
| 2026-04-18 11:00 | 33.64083 | -15.67862 | 29307 ft | 450 kts | 226° |
| 2026-04-18 11:00 | 33.61928 | -15.70522 | 28853 ft | 441 kts | 226° |
| 2026-04-18 11:00 | 33.59800 | -15.73149 | 28160 ft | 437 kts | 226° |
| 2026-04-18 11:01 | 33.57664 | -15.75782 | 26984 ft | 445 kts | 226° |
| 2026-04-18 11:01 | 33.55474 | -15.78478 | 25796 ft | 454 kts | 226° |
| 2026-04-18 11:01 | 33.53237 | -15.81155 | 25032 ft | 456 kts | 224° |
| 2026-04-18 11:02 | 33.48698 | -15.86433 | 23862 ft | 454 kts | 224° |
| 2026-04-18 11:02 | 33.46441 | -15.89062 | 22987 ft | 451 kts | 224° |
| 2026-04-18 11:02 | 33.44199 | -15.91677 | 22224 ft | 447 kts | 224° |
| 2026-04-18 11:02 | 33.41984 | -15.94262 | 21515 ft | 442 kts | 224° |
| 2026-04-18 11:03 | 33.39793 | -15.96820 | 20806 ft | 437 kts | 225° |
| 2026-04-18 11:03 | 33.37625 | -15.99350 | 20103 ft | 433 kts | 225° |
| 2026-04-18 11:03 | 33.35480 | -16.01853 | 19401 ft | 428 kts | 225° |
| 2026-04-18 11:03 | 33.33353 | -16.04333 | 18718 ft | 424 kts | 225° |
| 2026-04-18 11:04 | 33.31257 | -16.06774 | 17932 ft | 419 kts | 225° |
| 2026-04-18 11:04 | 33.29203 | -16.09167 | 17171 ft | 415 kts | 225° |
| 2026-04-18 11:04 | 33.27150 | -16.11556 | 16432 ft | 409 kts | 225° |
| 2026-04-18 11:04 | 33.25124 | -16.13911 | 15704 ft | 403 kts | 225° |
| 2026-04-18 11:05 | 33.23128 | -16.16230 | 15019 ft | 397 kts | 225° |
| 2026-04-18 11:05 | 33.21158 | -16.18519 | 14318 ft | 392 kts | 224° |
| 2026-04-18 11:05 | 33.19219 | -16.20770 | 13613 ft | 386 kts | 224° |
| 2026-04-18 11:05 | 33.17304 | -16.22991 | 12837 ft | 381 kts | 224° |
| 2026-04-18 11:06 | 33.15412 | -16.25184 | 12030 ft | 378 kts | 224° |
| 2026-04-18 11:06 | 33.13552 | -16.27339 | 11494 ft | 359 kts | 224° |
| 2026-04-18 11:06 | 33.11837 | -16.29328 | 10994 ft | 328 kts | 224° |
| 2026-04-18 11:06 | 33.10258 | -16.31161 | 10659 ft | 310 kts | 224° |
| 2026-04-18 11:07 | 33.08764 | -16.32893 | 10460 ft | 298 kts | 224° |
| 2026-04-18 11:07 | 33.07308 | -16.34580 | 10297 ft | 285 kts | 224° |
| 2026-04-18 11:07 | 33.05906 | -16.36200 | 10080 ft | 276 kts | 224° |
| 2026-04-18 11:07 | 33.04540 | -16.37777 | 9723 ft | 272 kts | 224° |
| 2026-04-18 11:08 | 33.03183 | -16.39343 | 9292 ft | 271 kts | 224° |
| 2026-04-18 11:08 | 33.01834 | -16.40899 | 8865 ft | 270 kts | 224° |
| 2026-04-18 11:08 | 33.00490 | -16.42449 | 8427 ft | 268 kts | 224° |
| 2026-04-18 11:08 | 32.99149 | -16.43994 | 8014 ft | 268 kts | 224° |
| 2026-04-18 11:09 | 32.97813 | -16.45534 | 7612 ft | 267 kts | 224° |
| 2026-04-18 11:09 | 32.96478 | -16.47072 | 7211 ft | 266 kts | 224° |
| 2026-04-18 11:09 | 32.95166 | -16.48582 | 6827 ft | 265 kts | 224° |
| 2026-04-18 11:09 | 32.93842 | -16.50106 | 6411 ft | 264 kts | 223° |
| 2026-04-18 11:10 | 32.92520 | -16.51626 | 5990 ft | 263 kts | 223° |
| 2026-04-18 11:10 | 32.91176 | -16.53100 | 5561 ft | 263 kts | 221° |
| 2026-04-18 11:10 | 32.89805 | -16.54545 | 5138 ft | 263 kts | 220° |
| 2026-04-18 11:10 | 32.88438 | -16.55987 | 4715 ft | 262 kts | 220° |
| 2026-04-18 11:11 | 32.87082 | -16.57425 | 4305 ft | 261 kts | 220° |
| 2026-04-18 11:11 | 32.85724 | -16.58857 | 4124 ft | 259 kts | 219° |
| 2026-04-18 11:11 | 32.84367 | -16.60197 | 3987 ft | 247 kts | 216° |
| 2026-04-18 11:11 | 32.83012 | -16.61379 | 3932 ft | 239 kts | 212° |
| 2026-04-18 11:12 | 32.81618 | -16.62405 | 3922 ft | 238 kts | 207° |
| 2026-04-18 11:12 | 32.80265 | -16.63546 | 3945 ft | 242 kts | 225° |
| 2026-04-18 11:12 | 32.79392 | -16.65264 | 3940 ft | 246 kts | 244° |
| 2026-04-18 11:12 | 32.79149 | -16.67276 | 3938 ft | 252 kts | 274° |
| 2026-04-18 11:13 | 32.79775 | -16.69221 | 3945 ft | 257 kts | 304° |
| 2026-04-18 11:13 | 32.81130 | -16.70591 | 3946 ft | 259 kts | 335° |
| 2026-04-18 11:13 | 32.82873 | -16.71040 | 3945 ft | 258 kts | 2° |
| 2026-04-18 11:13 | 32.84658 | -16.70824 | 3936 ft | 258 kts | 11° |
| 2026-04-18 11:14 | 32.86297 | -16.70030 | 3949 ft | 254 kts | 36° |
| 2026-04-18 11:14 | 32.87688 | -16.68747 | 3943 ft | 257 kts | 47° |
| 2026-04-18 11:14 | 32.88759 | -16.67021 | 3934 ft | 258 kts | 69° |
| 2026-04-18 11:14 | 32.89065 | -16.65026 | 3945 ft | 239 kts | 101° |
| 2026-04-18 11:15 | 32.88465 | -16.63241 | 3951 ft | 232 kts | 129° |
| 2026-04-18 11:15 | 32.87418 | -16.61777 | 3934 ft | 233 kts | 134° |
| 2026-04-18 11:15 | 32.86279 | -16.60331 | 3930 ft | 239 kts | 136° |
| 2026-04-18 11:15 | 32.85107 | -16.59001 | 3946 ft | 232 kts | 140° |
| 2026-04-18 11:16 | 32.83852 | -16.57765 | 3941 ft | 231 kts | 144° |
| 2026-04-18 11:16 | 32.82562 | -16.56680 | 3942 ft | 230 kts | 148° |
| 2026-04-18 11:16 | 32.81186 | -16.55705 | 3936 ft | 230 kts | 152° |
| 2026-04-18 11:16 | 32.79749 | -16.54866 | 3938 ft | 230 kts | 157° |
| 2026-04-18 11:17 | 32.78266 | -16.54167 | 3940 ft | 229 kts | 161° |
| 2026-04-18 11:17 | 32.76741 | -16.53610 | 3941 ft | 229 kts | 166° |
| 2026-04-18 11:17 | 32.75180 | -16.53203 | 3940 ft | 230 kts | 170° |
| 2026-04-18 11:17 | 32.73596 | -16.52985 | 3931 ft | 225 kts | 178° |
| 2026-04-18 11:18 | 32.72101 | -16.53220 | 3945 ft | 211 kts | 195° |
| 2026-04-18 11:18 | 32.70845 | -16.54017 | 3976 ft | 205 kts | 216° |
| 2026-04-18 11:18 | 32.69939 | -16.55345 | 3989 ft | 211 kts | 238° |
| 2026-04-18 11:18 | 32.69289 | -16.56913 | 3865 ft | 212 kts | 242° |
| 2026-04-18 11:19 | 32.68672 | -16.58511 | 3759 ft | 214 kts | 242° |
| 2026-04-18 11:19 | 32.68050 | -16.60119 | 3636 ft | 214 kts | 242° |
| 2026-04-18 11:19 | 32.67424 | -16.61721 | 3488 ft | 213 kts | 242° |
| 2026-04-18 11:19 | 32.66790 | -16.63329 | 3415 ft | 216 kts | 242° |
| 2026-04-18 11:20 | 32.66156 | -16.64939 | 3316 ft | 216 kts | 242° |
| 2026-04-18 11:20 | 32.65527 | -16.66533 | 3230 ft | 216 kts | 241° |
| 2026-04-18 11:20 | 32.64885 | -16.68150 | 3135 ft | 217 kts | 242° |
| 2026-04-18 11:20 | 32.64238 | -16.69771 | 3037 ft | 217 kts | 242° |
| 2026-04-18 11:21 | 32.63590 | -16.71397 | 2945 ft | 219 kts | 242° |
| 2026-04-18 11:21 | 32.62939 | -16.73028 | 2812 ft | 219 kts | 242° |
| 2026-04-18 11:21 | 32.62290 | -16.74653 | 2542 ft | 215 kts | 243° |
| 2026-04-18 11:21 | 32.61668 | -16.76214 | 2395 ft | 204 kts | 244° |
| 2026-04-18 11:22 | 32.61299 | -16.77770 | 2246 ft | 192 kts | 272° |
| 2026-04-18 11:22 | 32.61784 | -16.79185 | 1919 ft | 186 kts | 316° |
| 2026-04-18 11:22 | 32.62799 | -16.80049 | 1603 ft | 176 kts | 340° |
| 2026-04-18 11:22 | 32.63948 | -16.80405 | 1239 ft | 167 kts | 1° |
| 2026-04-18 11:23 | 32.65079 | -16.80420 | 1110 ft | 155 kts | 6° |
| 2026-04-18 11:23 | 32.66078 | -16.80368 | 991 ft | 136 kts | 8° |
| 2026-04-18 11:23 | 32.66969 | -16.80208 | 742 ft | 127 kts | 21° |
| 2026-04-18 11:23 | 32.67731 | -16.79705 | 422 ft | 124 kts | 40° |
| 2026-04-18 11:24 | 32.68365 | -16.79067 | 276 ft | 116 kts | 41° |
| 2026-04-18 11:24 | 32.68949 | -16.78408 | 179 ft | 117 kts | 44° |
| 2026-04-18 11:24 | 32.69478 | -16.77808 | 174 ft | 85 kts | 44° |
| 2026-04-18 11:24 | 32.69794 | -16.77440 | 182 ft | 43 kts | 44° |
| 2026-04-18 11:25 | 32.69934 | -16.77275 | 202 ft | 21 kts | 48° |
| 2026-04-18 11:25 | 32.69945 | -16.77228 | 198 ft | 10 kts | 99° |
| 2026-04-18 11:25 | 32.69898 | -16.77180 | 184 ft | 8 kts | 174° |
| 2026-04-18 11:25 | 32.69826 | -16.77197 | 180 ft | 14 kts | 217° |
| 2026-04-18 11:26 | 32.69737 | -16.77302 | 174 ft | 22 kts | 226° |
| 2026-04-18 11:26 | 32.69631 | -16.77437 | 179 ft | 20 kts | 228° |
| 2026-04-18 11:26 | 32.69556 | -16.77489 | 181 ft | 6 kts | 153° |
| 2026-04-18 11:26 | 32.69530 | -16.77455 | 182 ft | 7 kts | 137° |
| 2026-04-18 11:27 | 32.69521 | -16.77445 | 182 ft | 0 kts | 138° |